PWSweather.com
Personal Weather Stations
Station Observations
J24K28P63
Vysocina, PocatkyCZ 39464

VysocinaPocatkyCZ 39464

Lat: 49.2594238, Lon: 15.2331769

Elevation: 2011

Station Type: Vantage Pro2+

http://meteo-jirkalina.com

High Low Average
Temperature 95.1°F35.1°C 57.6°F14.2°C 79.5°F26.4°C
Dew Point 63.2°F17.3°C 38.3°F3.5°C 54.2°F12.3°C
Winds 5.0 mph 8.0 kmh Calm Calm 1.0 mph S1.6 kmh S
Wind Gusts 10.0 mph16.1 kmh -- 2.0 mph3.2 kmh
Humidity 89% 18% 46%
Pressure 30.12 in1020.0 mb 29.96 in1014.6 mb -
Precipitation 0.00 in0.0 mm - -
Hour Temp Dew Point Humidity Winds Wind Gusts Pressure Precip Precip Rate Daily Precip Total
12:00 AM 61.5°F16.4°C 52.0°F11.1°C 71% Calm Calm -- 30.06 in1017.9 mb - 0.00 in0.0 mm 0.00 in0.0 mm
12:30 AM 61.2°F16.2°C 51.7°F10.9°C 71% Calm Calm -- 30.06 in1017.9 mb - 0.00 in0.0 mm 0.00 in0.0 mm
01:00 AM 61.5°F16.4°C 51.6°F10.9°C 70% Calm Calm -- 30.06 in1017.9 mb - 0.00 in0.0 mm 0.00 in0.0 mm
01:30 AM 61.5°F16.4°C 51.6°F10.9°C 70% Calm Calm -- 30.05 in1017.6 mb - 0.00 in0.0 mm 0.00 in0.0 mm
02:00 AM 60.9°F16.1°C 52.6°F11.4°C 74% Calm Calm -- 30.05 in1017.6 mb - 0.00 in0.0 mm 0.00 in0.0 mm
02:30 AM 61.0°F16.1°C 52.7°F11.5°C 74% Calm Calm -- 30.05 in1017.6 mb - 0.00 in0.0 mm 0.00 in0.0 mm
03:00 AM 61.2°F16.2°C 52.5°F11.4°C 73% Calm Calm -- 30.05 in1017.6 mb - 0.00 in0.0 mm 0.00 in0.0 mm
03:30 AM 60.7°F15.9°C 53.1°F11.7°C 76% Calm Calm -- 30.05 in1017.6 mb - 0.00 in0.0 mm 0.00 in0.0 mm
04:00 AM 59.5°F15.3°C 54.3°F12.4°C 83% Calm Calm -- 30.05 in1017.6 mb - 0.00 in0.0 mm 0.00 in0.0 mm
04:30 AM 58.4°F14.7°C 54.2°F12.3°C 86% Calm Calm -- 30.05 in1017.6 mb - 0.00 in0.0 mm 0.00 in0.0 mm
05:00 AM 57.6°F14.2°C 54.1°F12.3°C 88% Calm Calm -- 30.05 in1017.6 mb - 0.00 in0.0 mm 0.00 in0.0 mm
05:10 AM 64.7°F18.2°C 58.4°F14.7°C 80% Calm Calm 1.0 mph1.6 kmh 30.11 in1019.6 mb - 0.00 in0.0 mm 0.00 in0.0 mm
05:20 AM 65.1°F18.4°C 58.8°F14.9°C 80% Calm Calm 3.0 mph4.8 kmh 30.11 in1019.6 mb - 0.00 in0.0 mm 0.00 in0.0 mm
05:30 AM 57.6°F14.2°C 54.4°F12.4°C 89% Calm Calm -- 30.06 in1017.9 mb - 0.00 in0.0 mm 0.00 in0.0 mm
05:40 AM 65.9°F18.8°C 59.2°F15.1°C 79% Calm Calm 1.0 mph1.6 kmh 30.11 in1019.6 mb - 0.00 in0.0 mm 0.00 in0.0 mm
05:50 AM 66.8°F19.3°C 59.8°F15.4°C 78% Calm Calm -- 30.11 in1019.6 mb - 0.00 in0.0 mm 0.00 in0.0 mm
06:00 AM 58.6°F14.8°C 55.4°F13.0°C 89% Calm Calm -- 30.06 in1017.9 mb - 0.00 in0.0 mm 0.00 in0.0 mm
06:10 AM 70.3°F21.3°C 60.9°F16.1°C 72% Calm Calm -- 30.11 in1019.6 mb - 0.00 in0.0 mm 0.00 in0.0 mm
06:20 AM 71.3°F21.8°C 60.6°F15.9°C 69% 1.0 mph WNW1.6 kmh WNW 2.0 mph3.2 kmh 30.12 in1020.0 mb - 0.00 in0.0 mm 0.00 in0.0 mm
06:30 AM 61.4°F16.3°C 56.9°F13.8°C 85% Calm Calm -- 30.07 in1018.3 mb - 0.00 in0.0 mm 0.00 in0.0 mm
06:40 AM 73.2°F22.9°C 61.2°F16.2°C 66% 2.0 mph WNW3.2 kmh WNW 3.0 mph4.8 kmh 30.12 in1020.0 mb - 0.00 in0.0 mm 0.00 in0.0 mm
06:50 AM 73.8°F23.2°C 61.3°F16.3°C 65% 5.0 mph WNW8.0 kmh WNW 5.0 mph8.0 kmh 30.12 in1020.0 mb - 0.00 in0.0 mm 0.00 in0.0 mm
07:00 AM 65.5°F18.6°C 58.5°F14.7°C 78% Calm Calm -- 30.07 in1018.3 mb - 0.00 in0.0 mm 0.00 in0.0 mm
07:10 AM 74.3°F23.5°C 60.9°F16.1°C 63% Calm Calm 1.0 mph1.6 kmh 30.12 in1020.0 mb - 0.00 in0.0 mm 0.00 in0.0 mm
07:20 AM 75.4°F24.1°C 62.0°F16.7°C 63% 1.0 mph WNW1.6 kmh WNW 3.0 mph4.8 kmh 30.12 in1020.0 mb - 0.00 in0.0 mm 0.00 in0.0 mm
07:30 AM 73.9°F23.3°C 50.0°F10.0°C 43% Calm Calm -- 30.07 in1018.3 mb - 0.00 in0.0 mm 0.00 in0.0 mm
07:40 AM 77.1°F25.1°C 61.2°F16.2°C 58% 1.0 mph WNW1.6 kmh WNW 2.0 mph3.2 kmh 30.11 in1019.6 mb - 0.00 in0.0 mm 0.00 in0.0 mm
07:50 AM 77.0°F25.0°C 61.6°F16.4°C 59% Calm Calm 2.0 mph3.2 kmh 30.11 in1019.6 mb - 0.00 in0.0 mm 0.00 in0.0 mm
08:00 AM 76.7°F24.8°C 49.1°F9.5°C 38% Calm Calm -- 30.07 in1018.3 mb - 0.00 in0.0 mm 0.00 in0.0 mm
08:10 AM 79.3°F26.3°C 61.7°F16.5°C 55% 1.0 mph WNW1.6 kmh WNW 3.0 mph4.8 kmh 30.12 in1020.0 mb - 0.00 in0.0 mm 0.00 in0.0 mm
08:20 AM 78.2°F25.7°C 61.7°F16.5°C 57% 1.0 mph NW1.6 kmh NW 3.0 mph4.8 kmh 30.12 in1020.0 mb - 0.00 in0.0 mm 0.00 in0.0 mm
08:30 AM 76.8°F24.9°C 47.1°F8.4°C 35% Calm Calm -- 30.07 in1018.3 mb - 0.00 in0.0 mm 0.00 in0.0 mm
08:40 AM 80.6°F27.0°C 61.9°F16.6°C 53% 3.0 mph NNE4.8 kmh NNE 3.0 mph4.8 kmh 30.12 in1020.0 mb - 0.00 in0.0 mm 0.00 in0.0 mm
08:50 AM 80.3°F26.8°C 62.1°F16.7°C 54% 1.0 mph NNE1.6 kmh NNE 3.0 mph4.8 kmh 30.12 in1020.0 mb - 0.00 in0.0 mm 0.00 in0.0 mm
09:00 AM 78.3°F25.7°C 48.4°F9.1°C 35% Calm Calm 1.0 mph1.6 kmh 30.07 in1018.3 mb - 0.00 in0.0 mm 0.00 in0.0 mm
09:10 AM 82.6°F28.1°C 63.2°F17.3°C 52% 2.0 mph NE3.2 kmh NE 3.0 mph4.8 kmh 30.12 in1020.0 mb - 0.00 in0.0 mm 0.00 in0.0 mm
09:20 AM 82.2°F27.9°C 61.7°F16.5°C 50% Calm Calm 1.0 mph1.6 kmh 30.12 in1020.0 mb - 0.00 in0.0 mm 0.00 in0.0 mm
09:30 AM 79.9°F26.6°C 46.6°F8.1°C 31% 1.8 mph SE2.9 kmh SE 3.0 mph4.8 kmh 30.07 in1018.3 mb - 0.00 in0.0 mm 0.00 in0.0 mm
09:40 AM 84.2°F29.0°C 61.7°F16.5°C 47% 1.0 mph NNE1.6 kmh NNE 3.0 mph4.8 kmh 30.11 in1019.6 mb - 0.00 in0.0 mm 0.00 in0.0 mm
09:50 AM 85.5°F29.7°C 62.3°F16.8°C 46% 3.0 mph NNE4.8 kmh NNE 3.0 mph4.8 kmh 30.11 in1019.6 mb - 0.00 in0.0 mm 0.00 in0.0 mm
10:00 AM 82.0°F27.8°C 44.7°F7.1°C 27% 2.5 mph S4.0 kmh S 3.0 mph4.8 kmh 30.07 in1018.3 mb - 0.00 in0.0 mm 0.00 in0.0 mm
10:10 AM 86.2°F30.1°C 62.3°F16.8°C 45% 2.0 mph NE3.2 kmh NE 5.0 mph8.0 kmh 30.11 in1019.6 mb - 0.00 in0.0 mm 0.00 in0.0 mm
10:20 AM 86.0°F30.0°C 62.8°F17.1°C 46% 3.0 mph NE4.8 kmh NE 5.0 mph8.0 kmh 30.11 in1019.6 mb - 0.00 in0.0 mm 0.00 in0.0 mm
10:30 AM 83.9°F28.8°C 44.3°F6.8°C 25% 0.1 mph SSW0.2 kmh SSW 2.0 mph3.2 kmh 30.06 in1017.9 mb - 0.00 in0.0 mm 0.00 in0.0 mm
10:40 AM 88.7°F31.5°C 62.6°F17.0°C 42% 3.0 mph NE4.8 kmh NE 3.0 mph4.8 kmh 30.10 in1019.3 mb - 0.00 in0.0 mm 0.00 in0.0 mm
10:50 AM 87.5°F30.8°C 61.6°F16.4°C 42% 5.0 mph NE8.0 kmh NE 9.0 mph14.5 kmh 30.09 in1019.0 mb - 0.00 in0.0 mm 0.00 in0.0 mm
11:00 AM 83.9°F28.8°C 41.0°F5.0°C 22% Calm Calm -- 30.05 in1017.6 mb - 0.00 in0.0 mm 0.00 in0.0 mm
11:10 AM 87.5°F30.8°C 60.9°F16.1°C 41% 1.0 mph ENE1.6 kmh ENE 3.0 mph4.8 kmh 30.09 in1019.0 mb - 0.00 in0.0 mm 0.00 in0.0 mm
11:20 AM 88.5°F31.4°C 60.4°F15.8°C 39% 1.0 mph ENE1.6 kmh ENE 2.0 mph3.2 kmh 30.08 in1018.6 mb - 0.00 in0.0 mm 0.00 in0.0 mm
11:30 AM 85.2°F29.6°C 43.3°F6.3°C 23% Calm Calm -- 30.04 in1017.3 mb - 0.00 in0.0 mm 0.00 in0.0 mm
11:40 AM 90.4°F32.4°C 60.6°F15.9°C 37% 3.0 mph NNW4.8 kmh NNW 5.0 mph8.0 kmh 30.08 in1018.6 mb - 0.00 in0.0 mm 0.00 in0.0 mm
11:50 AM 91.5°F33.1°C 61.5°F16.4°C 37% 3.0 mph WSW4.8 kmh WSW 5.0 mph8.0 kmh 30.07 in1018.3 mb - 0.00 in0.0 mm 0.00 in0.0 mm
12:00 PM 86.2°F30.1°C 40.4°F4.7°C 20% 3.1 mph NNE5.0 kmh NNE 4.0 mph6.4 kmh 30.04 in1017.3 mb - 0.00 in0.0 mm 0.00 in0.0 mm
12:10 PM 91.3°F32.9°C 59.8°F15.4°C 35% 3.0 mph NW4.8 kmh NW 10.0 mph16.1 kmh 30.07 in1018.3 mb - 0.00 in0.0 mm 0.00 in0.0 mm
12:20 PM 92.4°F33.6°C 60.8°F16.0°C 35% 1.0 mph NW1.6 kmh NW 3.0 mph4.8 kmh 30.07 in1018.3 mb - 0.00 in0.0 mm 0.00 in0.0 mm
12:30 PM 85.1°F29.5°C 40.8°F4.9°C 21% 1.8 mph SW2.9 kmh SW 6.0 mph9.7 kmh 30.04 in1017.3 mb - 0.00 in0.0 mm 0.00 in0.0 mm
12:40 PM 91.9°F33.3°C 60.4°F15.8°C 35% 1.0 mph NNE1.6 kmh NNE 1.0 mph1.6 kmh 30.06 in1017.9 mb - 0.00 in0.0 mm 0.00 in0.0 mm
12:50 PM 92.4°F33.6°C 59.9°F15.5°C 34% 1.0 mph NE1.6 kmh NE 5.0 mph8.0 kmh 30.06 in1017.9 mb - 0.00 in0.0 mm 0.00 in0.0 mm
01:00 PM 83.2°F28.4°C 41.5°F5.3°C 23% 2.7 mph S4.3 kmh S 5.0 mph8.0 kmh 30.03 in1016.9 mb - 0.00 in0.0 mm 0.00 in0.0 mm
01:10 PM 92.4°F33.6°C 58.3°F14.6°C 32% Calm Calm 1.0 mph1.6 kmh 30.05 in1017.6 mb - 0.00 in0.0 mm 0.00 in0.0 mm
01:20 PM 91.8°F33.2°C 57.7°F14.3°C 32% 3.0 mph SSW4.8 kmh SSW 6.0 mph9.7 kmh 30.05 in1017.6 mb - 0.00 in0.0 mm 0.00 in0.0 mm
01:30 PM 82.2°F27.9°C 40.7°F4.8°C 23% 2.4 mph SE3.9 kmh SE 4.0 mph6.4 kmh 30.03 in1016.9 mb - 0.00 in0.0 mm 0.00 in0.0 mm
01:40 PM 93.3°F34.1°C 58.1°F14.5°C 31% 2.0 mph S3.2 kmh S 8.0 mph12.9 kmh 30.04 in1017.3 mb - 0.00 in0.0 mm 0.00 in0.0 mm
01:50 PM 92.9°F33.8°C 57.8°F14.3°C 31% 1.0 mph WSW1.6 kmh WSW 7.0 mph11.3 kmh 30.03 in1016.9 mb - 0.00 in0.0 mm 0.00 in0.0 mm
02:00 PM 82.5°F28.1°C 43.2°F6.2°C 25% 1.9 mph SE3.1 kmh SE 2.0 mph3.2 kmh 30.02 in1016.6 mb - 0.00 in0.0 mm 0.00 in0.0 mm
02:10 PM 94.2°F34.6°C 59.0°F15.0°C 31% 3.0 mph SSW4.8 kmh SSW 6.0 mph9.7 kmh 30.03 in1016.9 mb - 0.00 in0.0 mm 0.00 in0.0 mm
02:20 PM 93.8°F34.3°C 58.6°F14.8°C 31% 2.0 mph WSW3.2 kmh WSW 3.0 mph4.8 kmh 30.02 in1016.6 mb - 0.00 in0.0 mm 0.00 in0.0 mm
02:30 PM 87.2°F30.7°C 38.5°F3.6°C 18% 1.9 mph NE3.1 kmh NE 3.0 mph4.8 kmh 30.01 in1016.3 mb - 0.00 in0.0 mm 0.00 in0.0 mm
02:40 PM 92.9°F33.8°C 56.9°F13.8°C 30% 3.0 mph SSE4.8 kmh SSE 6.0 mph9.7 kmh 30.01 in1016.3 mb - 0.00 in0.0 mm 0.00 in0.0 mm
02:50 PM 94.3°F34.6°C 58.1°F14.5°C 30% 5.0 mph WSW8.0 kmh WSW 8.0 mph12.9 kmh 30.01 in1016.3 mb - 0.00 in0.0 mm 0.00 in0.0 mm
03:00 PM 87.0°F30.6°C 39.8°F4.3°C 19% 2.1 mph NNW3.4 kmh NNW 4.0 mph6.4 kmh 30.00 in1015.9 mb - 0.00 in0.0 mm 0.00 in0.0 mm
03:10 PM 93.8°F34.3°C 56.8°F13.8°C 29% 3.0 mph W4.8 kmh W 6.0 mph9.7 kmh 30.00 in1015.9 mb - 0.00 in0.0 mm 0.00 in0.0 mm
03:20 PM 95.1°F35.1°C 57.8°F14.3°C 29% 3.0 mph WSW4.8 kmh WSW 6.0 mph9.7 kmh 30.00 in1015.9 mb - 0.00 in0.0 mm 0.00 in0.0 mm
03:30 PM 83.4°F28.6°C 41.7°F5.4°C 23% 2.4 mph NE3.9 kmh NE 5.0 mph8.0 kmh 30.00 in1015.9 mb - 0.00 in0.0 mm 0.00 in0.0 mm
03:40 PM 92.9°F33.8°C 57.8°F14.3°C 31% 2.0 mph NW3.2 kmh NW 6.0 mph9.7 kmh 29.99 in1015.6 mb - 0.00 in0.0 mm 0.00 in0.0 mm
03:50 PM 94.2°F34.6°C 57.1°F13.9°C 29% 1.0 mph NNW1.6 kmh NNW 2.0 mph3.2 kmh 29.99 in1015.6 mb - 0.00 in0.0 mm 0.00 in0.0 mm
04:00 PM 83.4°F28.6°C 39.4°F4.1°C 21% 1.9 mph E3.1 kmh E 4.0 mph6.4 kmh 29.99 in1015.6 mb - 0.00 in0.0 mm 0.00 in0.0 mm
04:10 PM 93.6°F34.2°C 57.5°F14.2°C 30% Calm Calm 1.0 mph1.6 kmh 29.99 in1015.6 mb - 0.00 in0.0 mm 0.00 in0.0 mm
04:20 PM 92.8°F33.8°C 56.8°F13.8°C 30% 2.0 mph NW3.2 kmh NW 3.0 mph4.8 kmh 29.99 in1015.6 mb - 0.00 in0.0 mm 0.00 in0.0 mm
04:30 PM 85.0°F29.4°C 39.5°F4.2°C 20% Calm Calm -- 29.98 in1015.2 mb - 0.00 in0.0 mm 0.00 in0.0 mm
04:40 PM 91.5°F33.1°C 56.6°F13.7°C 31% 1.0 mph NW1.6 kmh NW 1.0 mph1.6 kmh 29.98 in1015.2 mb - 0.00 in0.0 mm 0.00 in0.0 mm
04:50 PM 90.8°F32.7°C 56.9°F13.8°C 32% 1.0 mph NW1.6 kmh NW 3.0 mph4.8 kmh 29.98 in1015.2 mb - 0.00 in0.0 mm 0.00 in0.0 mm
05:00 PM 83.8°F28.8°C 40.9°F4.9°C 22% 0.6 mph SSW1.0 kmh SSW 2.0 mph3.2 kmh 29.98 in1015.2 mb - 0.00 in0.0 mm 0.00 in0.0 mm
05:10 PM 90.8°F32.7°C 58.5°F14.7°C 34% 1.0 mph NW1.6 kmh NW 3.0 mph4.8 kmh 29.97 in1014.9 mb - 0.00 in0.0 mm 0.00 in0.0 mm
05:20 PM 90.4°F32.4°C 57.4°F14.1°C 33% Calm Calm 2.0 mph3.2 kmh 29.97 in1014.9 mb - 0.00 in0.0 mm 0.00 in0.0 mm
05:30 PM 83.7°F28.7°C 38.3°F3.5°C 20% 0.2 mph SSW0.3 kmh SSW 2.0 mph3.2 kmh 29.97 in1014.9 mb - 0.00 in0.0 mm 0.00 in0.0 mm
05:40 PM 89.2°F31.8°C 57.2°F14.0°C 34% Calm Calm 1.0 mph1.6 kmh 29.97 in1014.9 mb - 0.00 in0.0 mm 0.00 in0.0 mm
05:50 PM 88.2°F31.2°C 57.9°F14.4°C 36% Calm Calm -- 29.97 in1014.9 mb - 0.00 in0.0 mm 0.00 in0.0 mm
06:00 PM 82.6°F28.1°C 39.9°F4.4°C 22% 1.5 mph SW2.4 kmh SW 4.0 mph6.4 kmh 29.97 in1014.9 mb - 0.00 in0.0 mm 0.00 in0.0 mm
06:10 PM 87.0°F30.6°C 57.6°F14.2°C 37% 1.0 mph NW1.6 kmh NW 2.0 mph3.2 kmh 29.97 in1014.9 mb - 0.00 in0.0 mm 0.00 in0.0 mm
06:20 PM 86.2°F30.1°C 58.3°F14.6°C 39% Calm Calm 1.0 mph1.6 kmh 29.97 in1014.9 mb - 0.00 in0.0 mm 0.00 in0.0 mm
06:30 PM 80.7°F27.1°C 41.6°F5.3°C 25% Calm Calm 1.0 mph1.6 kmh 29.96 in1014.6 mb - 0.00 in0.0 mm 0.00 in0.0 mm
06:40 PM 84.7°F29.3°C 57.7°F14.3°C 40% Calm Calm 1.0 mph1.6 kmh 29.97 in1014.9 mb - 0.00 in0.0 mm 0.00 in0.0 mm
06:50 PM 83.9°F28.8°C 57.0°F13.9°C 40% Calm Calm -- 29.97 in1014.9 mb - 0.00 in0.0 mm 0.00 in0.0 mm
07:00 PM 78.7°F25.9°C 44.6°F7.0°C 30% Calm Calm -- 29.96 in1014.6 mb - 0.00 in0.0 mm 0.00 in0.0 mm
07:30 PM 75.2°F24.0°C 47.8°F8.8°C 38% Calm Calm -- 29.97 in1014.9 mb - 0.00 in0.0 mm 0.00 in0.0 mm
08:00 PM 72.2°F22.3°C 49.1°F9.5°C 44% Calm Calm -- 29.97 in1014.9 mb - 0.00 in0.0 mm 0.00 in0.0 mm
08:30 PM 69.4°F20.8°C 50.5°F10.3°C 51% Calm Calm -- 29.97 in1014.9 mb - 0.00 in0.0 mm 0.00 in0.0 mm
09:00 PM 67.9°F19.9°C 51.1°F10.6°C 55% Calm Calm -- 29.97 in1014.9 mb - 0.00 in0.0 mm 0.00 in0.0 mm
09:30 PM 66.9°F19.4°C 51.2°F10.7°C 57% Calm Calm -- 29.97 in1014.9 mb - 0.00 in0.0 mm 0.00 in0.0 mm
10:00 PM 66.1°F18.9°C 52.7°F11.5°C 62% Calm Calm -- 29.97 in1014.9 mb - 0.00 in0.0 mm 0.00 in0.0 mm
10:30 PM 65.2°F18.4°C 52.3°F11.3°C 63% Calm Calm -- 29.97 in1014.9 mb - 0.00 in0.0 mm 0.00 in0.0 mm
11:00 PM 64.2°F17.9°C 53.8°F12.1°C 69% Calm Calm -- 29.97 in1014.9 mb - 0.00 in0.0 mm 0.00 in0.0 mm
11:30 PM 63.4°F17.4°C 55.3°F12.9°C 75% Calm Calm -- 29.97 in1014.9 mb - 0.00 in0.0 mm 0.00 in0.0 mm